Time;durP1;ratioP1;P1;durP2;ratioP2;P2;SDS_P1;SDS_P2;PMS_P1;PMS_P2;Temp;Humidity;BMP_temperature;BMP_pressure;BME280_temperature;BME280_humidity;BME280_pressure;Samples;Min_cycle;Max_cycle;Signal;HPM_P1;HPM_P2
2023/08/08 00:00:50;;;;;;;6.97;2.90;;;14.70;99.90;;;;;;5074775;28;20529;-70
2023/08/08 00:03:15;;;;;;;7.57;2.63;;;14.80;99.90;;;;;;5074515;28;20040;-71
2023/08/08 00:05:41;;;;;;;5.33;2.47;;;14.80;99.90;;;;;;5057017;28;20427;-71
2023/08/08 00:08:07;;;;;;;8.57;3.00;;;14.80;99.90;;;;;;5074369;28;20085;-70
2023/08/08 00:10:32;;;;;;;6.83;2.43;;;14.80;99.90;;;;;;5074613;28;20048;-71
2023/08/08 00:12:58;;;;;;;6.03;2.50;;;14.80;99.90;;;;;;5074628;28;20043;-72
2023/08/08 00:15:24;;;;;;;5.23;2.77;;;14.80;99.90;;;;;;5074521;28;20055;-70
2023/08/08 00:17:50;;;;;;;6.93;2.87;;;14.80;99.90;;;;;;5074208;28;20033;-70
2023/08/08 00:20:15;;;;;;;8.97;2.93;;;14.80;99.90;;;;;;5073009;28;20082;-70
2023/08/08 00:22:41;;;;;;;6.63;3.17;;;14.80;99.90;;;;;;5073584;28;20070;-70
2023/08/08 00:25:08;;;;;;;8.07;2.53;;;14.80;99.90;;;;;;5074020;28;20132;-70
2023/08/08 00:27:34;;;;;;;8.40;2.57;;;14.70;99.90;;;;;;5073795;28;20110;-70
2023/08/08 00:30:00;;;;;;;12.57;3.53;;;14.70;99.90;;;;;;5074198;28;20279;-70
2023/08/08 00:32:26;;;;;;;8.33;2.83;;;14.70;99.90;;;;;;5074109;28;20093;-70
2023/08/08 00:34:52;;;;;;;8.77;2.60;;;14.70;99.90;;;;;;5073168;28;20670;-70
2023/08/08 00:37:18;;;;;;;9.67;3.10;;;14.70;99.90;;;;;;5073891;28;20087;-70
2023/08/08 00:39:45;;;;;;;8.53;3.00;;;14.60;99.90;;;;;;5074049;28;20059;-70
2023/08/08 00:42:12;;;;;;;9.97;2.87;;;14.60;99.90;;;;;;5073745;28;20077;-70
2023/08/08 00:44:40;;;;;;;5.83;2.43;;;14.60;99.90;;;;;;5073865;28;20283;-70
2023/08/08 00:47:07;;;;;;;9.70;2.77;;;14.60;99.90;;;;;;5073537;28;20275;-70
2023/08/08 00:49:33;;;;;;;7.80;2.90;;;14.60;99.90;;;;;;5073802;28;20353;-70
2023/08/08 00:51:59;;;;;;;8.20;2.57;;;14.50;99.90;;;;;;5073889;28;20278;-70
2023/08/08 00:54:24;;;;;;;9.00;2.70;;;14.50;99.90;;;;;;5073550;28;20083;-70
2023/08/08 00:56:50;;;;;;;8.60;3.23;;;14.50;99.90;;;;;;5073802;28;20041;-70
2023/08/08 00:59:19;;;;;;;6.53;2.80;;;14.50;99.90;;;;;;5072261;28;20044;-70
2023/08/08 01:01:45;;;;;;;6.90;2.43;;;14.50;99.90;;;;;;5073814;28;20129;-70
2023/08/08 01:04:12;;;;;;;6.57;2.50;;;14.50;99.90;;;;;;5073382;28;20303;-71
2023/08/08 01:06:46;;;;;;;9.07;2.73;;;14.40;99.90;;;;;;5073691;28;20448;-70
2023/08/08 01:09:24;;;;;;;8.93;3.10;;;14.40;99.90;;;;;;5073292;28;20291;-71
2023/08/08 01:11:51;;;;;;;6.37;2.63;;;14.40;99.90;;;;;;5073541;28;20048;-70
2023/08/08 01:14:18;;;;;;;10.77;3.20;;;14.40;99.90;;;;;;5072219;28;20314;-70
2023/08/08 01:16:45;;;;;;;7.90;3.03;;;14.40;99.90;;;;;;5072225;28;20486;-71
2023/08/08 01:19:19;;;;;;;7.73;3.50;;;14.40;99.90;;;;;;5073193;28;20135;-71
2023/08/08 01:21:48;;;;;;;9.18;3.28;;;14.40;99.90;;;;;;5073454;28;20271;-71
2023/08/08 01:24:20;;;;;;;10.10;3.87;;;14.40;99.90;;;;;;5073158;28;20380;-71
2023/08/08 01:26:46;;;;;;;10.23;3.43;;;14.30;99.90;;;;;;5073286;28;20385;-71
2023/08/08 01:29:12;;;;;;;7.90;2.90;;;14.30;99.90;;;;;;5072960;28;20049;-72
2023/08/08 01:31:38;;;;;;;9.10;2.63;;;14.30;99.90;;;;;;5072770;28;20619;-71
2023/08/08 01:34:04;;;;;;;9.17;3.40;;;14.30;99.90;;;;;;5073311;28;20079;-71
2023/08/08 01:36:37;;;;;;;7.93;3.00;;;14.30;99.90;;;;;;5073004;28;20055;-71
2023/08/08 01:39:06;;;;;;;9.20;2.87;;;14.30;99.90;;;;;;5072393;28;20124;-71
2023/08/08 01:41:33;;;;;;;8.50;3.10;;;14.30;99.90;;;;;;5071830;28;20266;-71
2023/08/08 01:44:00;;;;;;;11.23;3.17;;;14.20;99.90;;;;;;5073110;28;20320;-71
2023/08/08 01:46:26;;;;;;;9.30;3.37;;;14.30;99.90;;;;;;5072860;28;20282;-71
2023/08/08 01:48:52;;;;;;;6.83;2.73;;;14.30;99.90;;;;;;5072998;28;20345;-71
2023/08/08 01:51:18;;;;;;;9.87;2.93;;;14.30;99.90;;;;;;5072759;28;20750;-71
2023/08/08 01:53:43;;;;;;;10.63;3.20;;;14.30;99.90;;;;;;5073021;28;20043;-71
2023/08/08 01:56:09;;;;;;;7.90;2.83;;;14.30;99.90;;;;;;5072907;28;20097;-71
2023/08/08 01:58:35;;;;;;;11.83;2.77;;;14.30;99.90;;;;;;5072749;28;20040;-71
2023/08/08 02:01:00;;;;;;;6.57;2.80;;;14.30;99.90;;;;;;5072917;28;20517;-71
2023/08/08 02:03:26;;;;;;;9.07;3.00;;;14.30;99.90;;;;;;5072737;28;20392;-71
2023/08/08 02:05:52;;;;;;;6.17;2.60;;;14.30;99.90;;;;;;5072548;28;20518;-71
2023/08/08 02:08:18;;;;;;;8.03;2.87;;;14.30;99.90;;;;;;5071403;28;20039;-71
2023/08/08 02:10:43;;;;;;;8.60;2.90;;;14.40;99.90;;;;;;5072919;28;20048;-71
2023/08/08 02:13:09;;;;;;;9.60;2.63;;;14.40;99.90;;;;;;5072833;28;20411;-71
2023/08/08 02:15:35;;;;;;;11.00;2.63;;;14.40;99.90;;;;;;5072550;28;20128;-71
2023/08/08 02:18:02;;;;;;;8.43;3.30;;;14.40;99.90;;;;;;5072783;28;20048;-71
2023/08/08 02:20:28;;;;;;;11.57;4.10;;;14.40;99.90;;;;;;5072450;28;20045;-71
2023/08/08 02:22:53;;;;;;;8.57;2.77;;;14.40;99.90;;;;;;5072707;28;20278;-71
2023/08/08 02:25:19;;;;;;;12.40;3.00;;;14.40;99.90;;;;;;5071701;28;20041;-71
2023/08/08 02:27:45;;;;;;;8.00;2.37;;;14.40;99.90;;;;;;5072481;28;20048;-71
2023/08/08 02:30:11;;;;;;;9.50;3.30;;;14.40;99.90;;;;;;5071744;28;20051;-71
2023/08/08 02:32:37;;;;;;;10.33;2.80;;;14.40;99.90;;;;;;5054707;28;20087;-71
2023/08/08 02:35:03;;;;;;;8.73;2.63;;;14.40;99.90;;;;;;5054936;28;20314;-71
2023/08/08 02:37:28;;;;;;;8.83;3.03;;;14.40;99.90;;;;;;5072330;28;20117;-71
2023/08/08 02:39:54;;;;;;;9.70;2.47;;;14.40;99.90;;;;;;5072625;28;20414;-71
2023/08/08 02:42:20;;;;;;;9.73;2.60;;;14.40;99.90;;;;;;5074960;28;20090;-71
2023/08/08 02:44:45;;;;;;;7.90;2.73;;;14.40;99.90;;;;;;5076235;28;20511;-71
2023/08/08 02:47:11;;;;;;;8.80;2.73;;;14.40;99.90;;;;;;5076179;28;20091;-71
2023/08/08 02:49:37;;;;;;;8.17;3.30;;;14.40;99.90;;;;;;5076032;28;20059;-72
2023/08/08 02:52:03;;;;;;;15.10;3.23;;;14.40;99.90;;;;;;5076116;28;20044;-72
2023/08/08 02:54:29;;;;;;;8.47;3.03;;;14.50;99.90;;;;;;5075890;28;20076;-72
2023/08/08 02:56:55;;;;;;;11.23;3.10;;;14.50;99.90;;;;;;5076073;28;20318;-72
2023/08/08 02:59:20;;;;;;;8.20;2.80;;;14.50;99.90;;;;;;5074903;28;20430;-72
2023/08/08 03:01:47;;;;;;;11.77;3.37;;;14.50;99.90;;;;;;5075972;28;20041;-72
2023/08/08 03:04:13;;;;;;;8.37;2.70;;;14.50;99.90;;;;;;5074741;28;20044;-72
2023/08/08 03:06:38;;;;;;;7.83;2.63;;;14.50;99.90;;;;;;5075698;28;20293;-72
2023/08/08 03:09:05;;;;;;;12.00;3.20;;;14.50;99.90;;;;;;5075942;28;20044;-72
2023/08/08 03:11:30;;;;;;;7.23;2.27;;;14.40;99.90;;;;;;5075647;28;20048;-71
2023/08/08 03:13:56;;;;;;;8.53;2.77;;;14.40;99.90;;;;;;5075908;28;20045;-71
2023/08/08 03:16:22;;;;;;;10.53;2.70;;;14.40;99.90;;;;;;5075842;28;20048;-72
2023/08/08 03:18:47;;;;;;;12.60;3.17;;;14.40;99.90;;;;;;5074510;28;20032;-71
2023/08/08 03:21:13;;;;;;;9.03;3.37;;;14.30;99.90;;;;;;5074658;28;20119;-71
2023/08/08 03:23:39;;;;;;;9.00;3.27;;;14.30;99.90;;;;;;5075366;28;20083;-71
2023/08/08 03:26:05;;;;;;;10.17;2.70;;;14.30;99.90;;;;;;5057967;28;20043;-71
2023/08/08 03:28:31;;;;;;;10.13;2.97;;;14.30;99.90;;;;;;5073957;28;20041;-71
2023/08/08 03:30:57;;;;;;;6.23;2.53;;;14.30;99.90;;;;;;5074136;28;20102;-71
2023/08/08 03:33:22;;;;;;;9.80;2.53;;;14.20;99.90;;;;;;5075139;28;20045;-72
2023/08/08 03:35:48;;;;;;;8.87;2.60;;;14.20;99.90;;;;;;5057827;28;20037;-71
2023/08/08 03:38:14;;;;;;;9.20;2.70;;;14.20;99.90;;;;;;5074215;28;20040;-71
2023/08/08 03:40:40;;;;;;;9.13;2.40;;;14.20;99.90;;;;;;5075057;28;20051;-71
2023/08/08 03:43:05;;;;;;;9.83;2.73;;;14.10;99.90;;;;;;5075450;28;20080;-71
2023/08/08 03:45:31;;;;;;;9.73;2.83;;;14.10;99.90;;;;;;5073671;28;20119;-71
2023/08/08 03:47:57;;;;;;;9.97;2.80;;;14.10;99.90;;;;;;5075060;28;20029;-71
2023/08/08 03:50:22;;;;;;;7.50;2.50;;;14.10;99.90;;;;;;5075141;28;20052;-71
2023/08/08 03:52:48;;;;;;;8.47;2.80;;;14.20;99.90;;;;;;5074476;28;20048;-71
2023/08/08 03:55:14;;;;;;;8.40;2.43;;;14.20;99.90;;;;;;5075108;28;20358;-71
2023/08/08 03:57:39;;;;;;;10.50;3.00;;;14.20;99.90;;;;;;5074464;28;20123;-72
2023/08/08 04:00:08;;;;;;;8.10;2.60;;;14.20;99.90;;;;;;5075043;28;20047;-72
2023/08/08 04:02:33;;;;;;;6.90;2.60;;;14.20;99.90;;;;;;5074721;28;20080;-72
2023/08/08 04:04:59;;;;;;;11.03;2.60;;;14.20;99.90;;;;;;5074845;28;20360;-72
2023/08/08 04:07:25;;;;;;;8.17;2.37;;;14.20;99.90;;;;;;5074598;28;20040;-73
2023/08/08 04:09:50;;;;;;;8.60;2.17;;;14.20;99.90;;;;;;5074788;28;20046;-72
2023/08/08 04:12:16;;;;;;;7.00;2.50;;;14.20;99.90;;;;;;5073468;28;20476;-72
2023/08/08 04:14:42;;;;;;;7.57;2.13;;;14.20;99.90;;;;;;5074405;28;20078;-72
2023/08/08 04:17:07;;;;;;;6.93;2.00;;;14.20;99.90;;;;;;5074557;28;20040;-71
2023/08/08 04:19:33;;;;;;;10.30;2.83;;;14.10;99.90;;;;;;5074347;28;20052;-72
2023/08/08 04:21:59;;;;;;;7.70;2.30;;;14.10;99.90;;;;;;5074621;28;20484;-72
2023/08/08 04:24:25;;;;;;;8.13;2.37;;;14.10;99.90;;;;;;5074438;28;20044;-71
2023/08/08 04:26:51;;;;;;;7.37;1.97;;;14.00;99.90;;;;;;5074205;28;20147;-71
2023/08/08 04:29:16;;;;;;;13.33;2.10;;;14.00;99.90;;;;;;5073012;28;20821;-71
2023/08/08 04:31:42;;;;;;;6.57;2.27;;;13.90;99.90;;;;;;5074109;28;20086;-71
2023/08/08 04:34:08;;;;;;;7.23;2.27;;;14.00;99.90;;;;;;5074272;28;20094;-71
2023/08/08 04:36:33;;;;;;;9.03;2.83;;;13.90;99.90;;;;;;5074044;28;20451;-71
2023/08/08 04:38:59;;;;;;;6.40;2.30;;;13.90;99.90;;;;;;5074124;28;20040;-71
2023/08/08 04:41:25;;;;;;;7.23;2.23;;;13.90;99.90;;;;;;5074160;28;20036;-71
2023/08/08 04:43:50;;;;;;;9.13;2.07;;;13.90;99.90;;;;;;5073822;28;20469;-71
2023/08/08 04:46:16;;;;;;;5.03;1.73;;;13.90;99.90;;;;;;5073969;28;20131;-71
2023/08/08 04:48:42;;;;;;;7.03;1.83;;;13.90;99.90;;;;;;5073637;28;20028;-71
2023/08/08 04:51:08;;;;;;;7.73;1.80;;;13.90;99.90;;;;;;5073851;28;20119;-71
2023/08/08 04:53:34;;;;;;;8.47;2.13;;;14.00;99.90;;;;;;5072617;28;20048;-72
2023/08/08 04:56:00;;;;;;;6.77;2.30;;;14.10;99.90;;;;;;5074114;28;20051;-71
2023/08/08 04:58:26;;;;;;;7.17;1.70;;;14.10;99.90;;;;;;5073701;28;20032;-71
2023/08/08 05:00:51;;;;;;;5.47;2.03;;;14.20;99.90;;;;;;5073537;28;20054;-71
2023/08/08 05:03:17;;;;;;;4.60;1.43;;;14.20;99.90;;;;;;5072942;28;20357;-71
2023/08/08 05:05:44;;;;;;;7.60;1.70;;;14.20;99.90;;;;;;5072633;28;20077;-71
2023/08/08 05:08:13;;;;;;;6.43;1.80;;;14.20;99.90;;;;;;5073578;28;20291;-71
2023/08/08 05:10:39;;;;;;;6.23;1.73;;;14.30;99.90;;;;;;5073423;28;20671;-71
2023/08/08 05:13:05;;;;;;;6.43;2.03;;;14.30;99.90;;;;;;5073519;28;20313;-71
2023/08/08 05:15:30;;;;;;;4.67;2.07;;;14.30;99.90;;;;;;5055676;28;20534;-71
2023/08/08 05:17:56;;;;;;;8.50;1.77;;;14.40;99.90;;;;;;5073253;28;20043;-71
2023/08/08 05:20:22;;;;;;;10.93;2.37;;;14.40;99.90;;;;;;5072188;28;20125;-71
2023/08/08 05:22:48;;;;;;;5.50;1.60;;;14.40;99.90;;;;;;5073264;28;20047;-71
2023/08/08 05:25:14;;;;;;;5.63;1.37;;;14.50;99.90;;;;;;5073208;28;20472;-71
2023/08/08 05:27:40;;;;;;;8.63;2.13;;;14.50;99.90;;;;;;5071522;28;20036;-71
2023/08/08 05:30:06;;;;;;;6.20;1.97;;;14.60;99.90;;;;;;5073365;28;20048;-71
2023/08/08 05:32:32;;;;;;;7.90;1.73;;;14.60;99.90;;;;;;5073296;28;20041;-71
2023/08/08 05:34:58;;;;;;;8.60;1.80;;;14.70;99.90;;;;;;5073067;28;20396;-71
2023/08/08 05:37:24;;;;;;;8.10;1.90;;;14.80;99.90;;;;;;5073217;28;20044;-71
2023/08/08 05:39:50;;;;;;;6.07;2.07;;;14.80;99.90;;;;;;5073070;28;20060;-71
2023/08/08 05:42:15;;;;;;;11.20;2.50;;;14.90;99.90;;;;;;5071998;28;20472;-71
2023/08/08 05:44:44;;;;;;;10.33;1.70;;;15.00;99.90;;;;;;5073081;28;20048;-71
2023/08/08 05:47:10;;;;;;;6.03;1.90;;;15.20;99.90;;;;;;5073338;28;20045;-71
2023/08/08 05:49:38;;;;;;;8.70;2.43;;;15.30;99.90;;;;;;5072967;28;20055;-72
2023/08/08 05:52:04;;;;;;;7.70;1.77;;;15.40;99.90;;;;;;5073100;28;20044;-71
2023/08/08 05:54:29;;;;;;;9.50;2.00;;;15.60;99.90;;;;;;5055146;28;20376;-71
2023/08/08 05:56:55;;;;;;;8.27;2.10;;;16.00;99.90;;;;;;5072884;28;20037;-71
2023/08/08 05:59:21;;;;;;;5.33;1.67;;;17.20;99.90;;;;;;5073027;28;20040;-71
2023/08/08 06:01:46;;;;;;;7.47;1.73;;;18.60;99.90;;;;;;5072841;28;20063;-71
2023/08/08 06:04:14;;;;;;;5.97;2.00;;;19.80;99.90;;;;;;5072944;28;20082;-69
2023/08/08 06:06:39;;;;;;;5.67;1.90;;;20.90;99.90;;;;;;5072623;28;20040;-69
2023/08/08 06:09:05;;;;;;;6.13;1.83;;;22.00;99.90;;;;;;5073044;28;20124;-69
2023/08/08 06:11:31;;;;;;;7.63;2.13;;;22.90;99.90;;;;;;5071894;28;20409;-69
2023/08/08 06:13:57;;;;;;;4.33;1.53;;;23.60;99.90;;;;;;5072602;28;20051;-69
2023/08/08 06:16:22;;;;;;;8.00;1.97;;;24.10;99.90;;;;;;5074008;28;20102;-69
2023/08/08 06:18:48;;;;;;;7.23;2.27;;;24.70;99.90;;;;;;5076549;28;20033;-69
2023/08/08 06:21:14;;;;;;;6.00;1.93;;;25.10;99.90;;;;;;5076773;28;20132;-70
2023/08/08 06:23:40;;;;;;;6.00;1.63;;;25.60;99.90;;;;;;5076490;28;20139;-70
2023/08/08 06:26:06;;;;;;;7.43;2.23;;;26.00;99.90;;;;;;5075448;28;20048;-70
2023/08/08 06:28:32;;;;;;;6.17;1.50;;;26.40;99.10;;;;;;5076740;28;20041;-70
2023/08/08 06:30:58;;;;;;;5.43;1.70;;;26.90;97.50;;;;;;5076335;28;20381;-70
2023/08/08 06:33:24;;;;;;;7.53;2.00;;;27.30;92.00;;;;;;5076473;28;20048;-70
2023/08/08 06:35:50;;;;;;;5.93;1.77;;;27.60;90.00;;;;;;5075069;28;20049;-69
2023/08/08 06:38:15;;;;;;;5.77;1.80;;;27.70;77.40;;;;;;5075447;28;20048;-69
2023/08/08 06:40:41;;;;;;;8.80;1.80;;;27.80;73.00;;;;;;5076406;28;20093;-70
2023/08/08 06:43:07;;;;;;;7.50;1.90;;;28.20;70.70;;;;;;5076308;28;20084;-69
2023/08/08 06:45:32;;;;;;;7.50;2.13;;;28.30;63.10;;;;;;5076429;28;20037;-69
2023/08/08 06:47:58;;;;;;;5.50;1.73;;;28.40;59.70;;;;;;5074756;28;20036;-69
2023/08/08 06:50:24;;;;;;;7.40;1.80;;;28.60;60.50;;;;;;5076178;28;20047;-69
2023/08/08 06:52:50;;;;;;;5.82;2.05;;;29.00;60.40;;;;;;5075879;28;20040;-70
2023/08/08 06:55:16;;;;;;;6.05;2.00;;;29.30;55.90;;;;;;5075863;28;20052;-70
2023/08/08 06:57:42;;;;;;;7.10;2.08;;;29.40;55.90;;;;;;5076214;28;20387;-70
2023/08/08 07:00:11;;;;;;;6.30;1.90;;;28.60;53.60;;;;;;5075819;28;20041;-70
2023/08/08 07:02:37;;;;;;;6.38;1.63;;;27.30;54.50;;;;;;5076246;28;20041;-70
2023/08/08 07:05:03;;;;;;;7.50;1.70;;;26.10;57.20;;;;;;5075720;28;20051;-70
2023/08/08 07:07:30;;;;;;;5.07;1.50;;;24.90;61.40;;;;;;5074739;28;20118;-70
2023/08/08 07:09:56;;;;;;;5.80;1.90;;;23.80;67.70;;;;;;5075648;28;20179;-70
2023/08/08 07:12:22;;;;;;;7.43;1.90;;;22.90;77.90;;;;;;5075830;28;20493;-69
2023/08/08 07:14:48;;;;;;;4.80;1.50;;;22.50;88.20;;;;;;5075544;28;20078;-70
2023/08/08 07:17:14;;;;;;;5.60;1.70;;;22.20;90.30;;;;;;5074210;28;20041;-69
2023/08/08 07:19:41;;;;;;;8.33;2.03;;;21.70;92.90;;;;;;5075793;28;20376;-69
2023/08/08 07:22:07;;;;;;;6.03;1.70;;;21.30;96.60;;;;;;5075490;28;20082;-69
2023/08/08 07:24:32;;;;;;;7.20;1.97;;;20.90;98.20;;;;;;5075562;28;20379;-69
2023/08/08 07:26:59;;;;;;;5.17;1.50;;;20.70;99.90;;;;;;5075268;28;20044;-69
2023/08/08 07:29:25;;;;;;;7.63;1.70;;;20.50;99.90;;;;;;5075201;28;20051;-69
2023/08/08 07:31:54;;;;;;;7.57;1.90;;;20.30;99.90;;;;;;5075266;28;20047;-70
2023/08/08 07:34:20;;;;;;;9.80;1.70;;;20.10;99.90;;;;;;5074233;28;20353;-69
2023/08/08 07:36:47;;;;;;;6.70;2.27;;;19.90;99.90;;;;;;5074380;28;20036;-69
2023/08/08 07:39:13;;;;;;;6.80;1.70;;;19.80;99.90;;;;;;5075093;28;20043;-69
2023/08/08 07:41:39;;;;;;;9.83;1.70;;;19.70;99.90;;;;;;5073998;28;20043;-69
2023/08/08 07:44:05;;;;;;;5.53;1.60;;;19.70;99.90;;;;;;5073780;28;20044;-69
2023/08/08 07:46:32;;;;;;;5.67;1.50;;;19.60;99.90;;;;;;5075150;28;20039;-69
2023/08/08 07:49:03;;;;;;;8.13;1.80;;;19.60;99.90;;;;;;5074848;28;20040;-69
2023/08/08 07:51:29;;;;;;;7.47;1.60;;;19.50;99.90;;;;;;5075356;28;20041;-69
2023/08/08 07:53:55;;;;;;;9.13;2.00;;;19.50;99.90;;;;;;5074830;28;20036;-70
2023/08/08 07:56:21;;;;;;;5.17;1.57;;;19.40;99.90;;;;;;5074983;28;20077;-69
2023/08/08 07:58:46;;;;;;;8.27;1.60;;;19.40;99.90;;;;;;5075059;28;20047;-70
2023/08/08 08:01:13;;;;;;;7.03;1.70;;;19.30;99.90;;;;;;5074758;28;20040;-69
2023/08/08 08:03:39;;;;;;;9.80;1.80;;;19.30;99.90;;;;;;5074501;28;20519;-69
2023/08/08 08:06:05;;;;;;;7.77;1.80;;;19.30;99.90;;;;;;5074584;28;20052;-70
2023/08/08 08:08:31;;;;;;;8.13;2.37;;;19.40;99.90;;;;;;5074412;28;20046;-69
2023/08/08 08:10:57;;;;;;;9.37;2.07;;;19.40;99.90;;;;;;5074444;28;20111;-69
2023/08/08 08:13:22;;;;;;;6.37;2.20;;;19.30;99.90;;;;;;5074352;28;20066;-69
2023/08/08 08:15:48;;;;;;;8.07;1.70;;;19.30;99.90;;;;;;5074288;28;20051;-69
2023/08/08 08:18:16;;;;;;;5.83;1.90;;;19.10;99.90;;;;;;5074268;28;20076;-69
2023/08/08 08:20:43;;;;;;;8.27;1.80;;;19.00;99.90;;;;;;5074465;28;20049;-69
2023/08/08 08:23:09;;;;;;;9.17;1.90;;;19.00;99.90;;;;;;5073938;28;20471;-69
2023/08/08 08:25:35;;;;;;;8.93;1.63;;;19.10;99.90;;;;;;5074384;28;20090;-69
2023/08/08 08:28:01;;;;;;;6.57;1.37;;;19.30;99.90;;;;;;5073960;28;20059;-69
2023/08/08 08:30:27;;;;;;;8.03;1.90;;;19.30;99.90;;;;;;5074265;28;20094;-69
2023/08/08 08:32:53;;;;;;;9.10;1.67;;;19.30;99.90;;;;;;5056706;28;20055;-68
2023/08/08 08:35:19;;;;;;;9.30;2.10;;;19.30;99.90;;;;;;5072835;28;20040;-69
2023/08/08 08:37:44;;;;;;;10.47;1.80;;;19.30;99.90;;;;;;5074198;28;20465;-69
2023/08/08 08:40:10;;;;;;;7.20;1.70;;;19.50;99.90;;;;;;5073772;28;20056;-69
2023/08/08 08:42:38;;;;;;;6.73;2.03;;;19.70;99.90;;;;;;5074020;28;20109;-69
2023/08/08 08:45:05;;;;;;;7.33;1.87;;;19.80;99.90;;;;;;5073810;28;20123;-71
2023/08/08 08:47:32;;;;;;;8.30;2.03;;;19.70;99.90;;;;;;5073905;28;20040;-71
2023/08/08 08:50:01;;;;;;;6.43;1.77;;;19.80;99.90;;;;;;5073756;28;20392;-71
2023/08/08 08:52:26;;;;;;;7.93;1.93;;;20.00;99.90;;;;;;5073255;28;20132;-70
2023/08/08 08:54:53;;;;;;;9.17;2.00;;;20.10;99.90;;;;;;5073921;28;20119;-70
2023/08/08 08:57:23;;;;;;;7.43;1.80;;;20.10;99.90;;;;;;5073551;28;20048;-70
2023/08/08 08:59:49;;;;;;;8.50;1.60;;;20.00;99.90;;;;;;5073768;28;20082;-70
2023/08/08 09:02:16;;;;;;;5.13;1.53;;;19.90;99.90;;;;;;5073507;28;20128;-69
2023/08/08 09:04:42;;;;;;;6.23;1.50;;;19.70;99.90;;;;;;5073659;28;20052;-69
2023/08/08 09:07:10;;;;;;;7.70;1.90;;;19.50;99.90;;;;;;5073483;28;20044;-70
2023/08/08 09:09:37;;;;;;;8.63;1.53;;;19.30;99.90;;;;;;5073789;28;20102;-69
2023/08/08 09:12:07;;;;;;;10.10;1.67;;;19.10;99.90;;;;;;5073750;28;20085;-70
2023/08/08 09:14:32;;;;;;;6.90;1.30;;;18.90;99.90;;;;;;5073647;28;20045;-70
2023/08/08 09:16:58;;;;;;;5.50;1.53;;;18.80;99.90;;;;;;5073471;28;20556;-70
2023/08/08 09:19:24;;;;;;;8.77;1.70;;;18.60;99.90;;;;;;5073453;28;20044;-70
2023/08/08 09:21:52;;;;;;;4.27;1.60;;;18.60;99.90;;;;;;5073472;28;20037;-70
2023/08/08 09:24:18;;;;;;;9.27;1.80;;;18.80;99.90;;;;;;5071963;28;20032;-70
2023/08/08 09:26:44;;;;;;;8.20;1.67;;;18.90;99.90;;;;;;5073586;28;20127;-70
2023/08/08 09:29:12;;;;;;;6.23;1.80;;;19.20;99.90;;;;;;5073194;28;20416;-70
2023/08/08 09:31:39;;;;;;;8.10;1.70;;;19.30;99.90;;;;;;5072038;28;20369;-70
2023/08/08 09:34:05;;;;;;;6.20;1.80;;;19.50;99.90;;;;;;5073037;28;20044;-70
2023/08/08 09:36:33;;;;;;;5.50;1.53;;;19.50;99.90;;;;;;5073200;28;20044;-70
2023/08/08 09:38:59;;;;;;;5.07;1.60;;;19.60;99.90;;;;;;5073189;28;20082;-70
2023/08/08 09:41:25;;;;;;;8.77;1.77;;;19.60;99.90;;;;;;5073037;28;20083;-69
2023/08/08 09:43:53;;;;;;;5.13;1.73;;;19.50;99.90;;;;;;5073140;28;20131;-70
2023/08/08 09:46:20;;;;;;;6.30;2.27;;;19.50;99.90;;;;;;5071936;28;20047;-70
2023/08/08 09:48:46;;;;;;;9.03;1.83;;;19.50;99.90;;;;;;5073058;28;20123;-69
2023/08/08 09:51:12;;;;;;;4.83;1.53;;;19.30;99.90;;;;;;5072336;28;20046;-69
2023/08/08 09:53:39;;;;;;;7.20;1.80;;;19.20;99.90;;;;;;5073332;28;20044;-69
2023/08/08 09:56:06;;;;;;;6.20;1.60;;;19.20;99.90;;;;;;5072576;28;20449;-70
2023/08/08 09:58:32;;;;;;;4.80;1.70;;;19.30;99.90;;;;;;5072988;28;20079;-69
2023/08/08 10:00:58;;;;;;;7.80;2.07;;;19.40;99.90;;;;;;5072999;28;20078;-70
2023/08/08 10:03:24;;;;;;;5.83;1.50;;;19.30;99.90;;;;;;5072715;28;20052;-70
2023/08/08 10:05:50;;;;;;;8.20;2.60;;;19.10;99.90;;;;;;5071784;28;20131;-70
2023/08/08 10:08:16;;;;;;;6.07;1.73;;;19.00;99.90;;;;;;5072597;28;20041;-70
2023/08/08 10:10:45;;;;;;;7.27;1.63;;;18.90;99.90;;;;;;5071876;28;20124;-70
2023/08/08 10:13:23;;;;;;;8.23;1.60;;;19.00;99.90;;;;;;5072668;28;20057;-70
2023/08/08 10:15:50;;;;;;;8.07;2.33;;;19.10;99.90;;;;;;5073019;28;20048;-70
2023/08/08 10:18:17;;;;;;;5.57;2.07;;;19.10;99.90;;;;;;5072603;28;20041;-70
2023/08/08 10:20:44;;;;;;;4.93;1.80;;;19.00;99.90;;;;;;5071576;28;20051;-70
2023/08/08 10:23:10;;;;;;;5.43;1.90;;;18.90;99.90;;;;;;5072541;28;20066;-70
2023/08/08 10:25:36;;;;;;;6.27;1.90;;;18.90;99.90;;;;;;5071832;28;20473;-70
2023/08/08 10:28:04;;;;;;;6.43;1.90;;;18.80;99.90;;;;;;5071553;28;20159;-69
2023/08/08 10:30:30;;;;;;;7.80;1.73;;;18.70;99.90;;;;;;5072521;28;20040;-69
2023/08/08 10:32:57;;;;;;;5.30;1.80;;;18.60;99.90;;;;;;5072900;28;20056;-69
2023/08/08 10:35:28;;;;;;;6.10;2.17;;;18.60;99.90;;;;;;5071228;28;20043;-70
2023/08/08 10:37:54;;;;;;;5.07;1.50;;;18.60;99.90;;;;;;5072425;28;20049;-69
2023/08/08 10:40:20;;;;;;;6.03;1.83;;;18.60;99.90;;;;;;5072083;28;20484;-69
2023/08/08 10:42:47;;;;;;;6.20;1.70;;;18.70;99.90;;;;;;5072644;28;20040;-69
2023/08/08 10:45:15;;;;;;;5.07;1.63;;;18.60;99.90;;;;;;5072370;28;20048;-70
2023/08/08 10:47:42;;;;;;;6.30;1.60;;;18.60;99.90;;;;;;5072561;28;20431;-69
2023/08/08 10:50:16;;;;;;;5.30;1.60;;;18.60;99.90;;;;;;5072464;28;20132;-69
2023/08/08 10:52:55;;;;;;;7.23;1.70;;;18.70;99.90;;;;;;5071674;28;20044;-69
2023/08/08 10:55:26;;;;;;;4.33;1.67;;;18.70;99.90;;;;;;5072471;28;20345;-70
2023/08/08 10:58:09;;;;;;;6.43;1.90;;;18.70;99.90;;;;;;5072615;28;20079;-70
2023/08/08 11:00:39;;;;;;;6.67;1.77;;;18.70;99.90;;;;;;5072264;28;20128;-70
2023/08/08 11:03:05;;;;;;;8.73;1.83;;;18.70;99.90;;;;;;5073265;28;20410;-69
2023/08/08 11:05:32;;;;;;;7.70;1.80;;;18.70;99.90;;;;;;5075747;28;20563;-70
2023/08/08 11:07:59;;;;;;;6.23;1.67;;;18.70;99.90;;;;;;5074872;28;20052;-69
2023/08/08 11:10:30;;;;;;;5.03;1.40;;;18.70;99.90;;;;;;5075655;28;20040;-69
2023/08/08 11:13:04;;;;;;;5.73;1.40;;;18.60;99.90;;;;;;5075973;28;20051;-69
2023/08/08 11:15:32;;;;;;;8.13;1.75;;;18.70;99.90;;;;;;5074701;28;20054;-70
2023/08/08 11:17:59;;;;;;;12.03;2.20;;;18.70;99.90;;;;;;5075730;28;20479;-69
2023/08/08 11:20:31;;;;;;;6.23;1.60;;;18.80;99.90;;;;;;5075540;28;20045;-70
2023/08/08 11:22:57;;;;;;;6.97;1.40;;;18.90;99.90;;;;;;5075738;28;20480;-70
2023/08/08 11:25:26;;;;;;;7.37;1.63;;;18.90;99.90;;;;;;5075390;28;20040;-70
2023/08/08 11:27:53;;;;;;;6.67;1.80;;;18.90;99.90;;;;;;5075389;28;20052;-70
2023/08/08 11:30:20;;;;;;;4.63;1.37;;;19.00;99.90;;;;;;5074186;28;20049;-70
2023/08/08 11:32:47;;;;;;;7.83;2.00;;;19.10;99.90;;;;;;5075458;28;20044;-69
2023/08/08 11:35:22;;;;;;;6.77;1.70;;;19.10;99.90;;;;;;5074350;28;20384;-69
2023/08/08 11:37:48;;;;;;;;;;;19.10;99.90;;;;;;5076177;28;20419;-70
2023/08/08 11:40:15;;;;;;;7.50;1.77;;;18.90;99.90;;;;;;5075381;28;19916;-69
2023/08/08 11:42:42;;;;;;;5.27;1.60;;;18.80;99.90;;;;;;5075292;28;20412;-70
2023/08/08 11:45:09;;;;;;;6.53;1.90;;;18.80;99.90;;;;;;5075155;28;20123;-70
2023/08/08 11:47:38;;;;;;;6.83;1.90;;;18.70;99.90;;;;;;5073693;28;20041;-69
2023/08/08 11:50:06;;;;;;;6.27;1.60;;;18.70;99.90;;;;;;5073935;28;20051;-69
2023/08/08 11:52:33;;;;;;;8.80;1.83;;;18.70;99.90;;;;;;5074953;28;20059;-70
2023/08/08 11:55:02;;;;;;;7.83;2.37;;;18.60;99.90;;;;;;5075214;28;20041;-69
2023/08/08 11:57:28;;;;;;;7.37;2.33;;;18.60;99.90;;;;;;5074853;28;20047;-70
2023/08/08 11:59:54;;;;;;;4.93;1.70;;;18.60;99.90;;;;;;5075264;28;20081;-70
2023/08/08 12:02:20;;;;;;;8.97;1.60;;;18.60;99.90;;;;;;5074758;28;20044;-70
2023/08/08 12:04:46;;;;;;;3.43;1.40;;;18.50;99.90;;;;;;5074819;28;20044;-70
2023/08/08 12:07:12;;;;;;;7.87;1.90;;;18.50;99.90;;;;;;5074863;28;20162;-69
2023/08/08 12:09:39;;;;;;;7.17;1.47;;;18.60;99.90;;;;;;5074465;28;20037;-70
2023/08/08 12:12:05;;;;;;;6.47;1.27;;;18.60;99.90;;;;;;5074646;28;20044;-70
2023/08/08 12:14:39;;;;;;;6.10;1.80;;;18.70;99.90;;;;;;5074007;28;20456;-70
2023/08/08 12:17:05;;;;;;;4.60;1.50;;;18.80;99.90;;;;;;5074641;28;20040;-70
2023/08/08 12:19:31;;;;;;;4.77;1.50;;;18.80;99.90;;;;;;5074409;28;20036;-70
2023/08/08 12:21:57;;;;;;;7.43;1.60;;;18.90;99.90;;;;;;5074496;28;20048;-69
2023/08/08 12:24:22;;;;;;;8.20;1.90;;;19.00;99.90;;;;;;5074327;28;20125;-70
2023/08/08 12:26:48;;;;;;;9.17;2.40;;;19.10;99.90;;;;;;5074424;28;20482;-70
2023/08/08 12:29:14;;;;;;;4.90;1.70;;;19.20;99.90;;;;;;5074420;28;20041;-70
2023/08/08 12:31:40;;;;;;;3.63;1.30;;;19.20;99.90;;;;;;5074135;28;20417;-69
2023/08/08 12:34:05;;;;;;;5.73;1.60;;;19.20;99.90;;;;;;5074325;28;20090;-70
2023/08/08 12:36:31;;;;;;;9.03;1.87;;;19.20;99.90;;;;;;5074311;28;20044;-70
2023/08/08 12:38:57;;;;;;;8.60;1.67;;;19.10;99.90;;;;;;5074179;28;20080;-69
2023/08/08 12:41:26;;;;;;;5.30;1.50;;;19.10;99.90;;;;;;5073948;28;20044;-70